createdAt,value
2018-07-12T00:02:20.930Z,4.60
2018-07-12T00:04:49.308Z,4.50
2018-07-12T00:07:17.708Z,5.10
2018-07-12T00:09:46.083Z,4.87
2018-07-12T00:12:14.456Z,4.97
2018-07-12T00:14:42.834Z,4.50
2018-07-12T00:17:11.224Z,5.00
2018-07-12T00:19:39.604Z,4.60
2018-07-12T00:22:07.992Z,4.80
2018-07-12T00:24:36.360Z,4.30
2018-07-12T00:27:05.140Z,4.67
2018-07-12T00:29:33.528Z,4.43
2018-07-12T00:32:01.904Z,4.70
2018-07-12T00:34:30.276Z,4.80
2018-07-12T00:36:58.696Z,5.13
2018-07-12T00:39:27.064Z,4.83
2018-07-12T00:41:55.444Z,4.67
2018-07-12T00:44:23.836Z,4.80
2018-07-12T00:46:52.196Z,5.00
2018-07-12T00:49:20.569Z,4.73
2018-07-12T00:51:48.976Z,4.47
2018-07-12T00:54:17.368Z,4.47
2018-07-12T00:56:45.748Z,4.30
2018-07-12T00:59:14.144Z,3.77
2018-07-12T01:01:42.543Z,4.07
2018-07-12T01:04:10.908Z,3.80
2018-07-12T01:06:39.281Z,4.60
2018-07-12T01:09:07.665Z,4.40
2018-07-12T01:11:36.032Z,4.50
2018-07-12T01:14:04.427Z,4.57
2018-07-12T01:16:32.801Z,4.73
2018-07-12T01:19:01.166Z,4.70
2018-07-12T01:21:29.564Z,4.57
2018-07-12T01:23:57.932Z,4.60
2018-07-12T01:26:26.300Z,4.70
2018-07-12T01:28:54.680Z,4.80
2018-07-12T01:31:23.081Z,4.17
2018-07-12T01:33:51.460Z,4.90
2018-07-12T01:36:19.829Z,5.07
2018-07-12T01:38:48.217Z,5.50
2018-07-12T01:41:16.752Z,4.80
2018-07-12T01:43:45.208Z,4.83
2018-07-12T01:46:13.661Z,4.90
2018-07-12T01:48:42.044Z,4.50
2018-07-12T01:51:10.410Z,4.80
2018-07-12T01:53:38.800Z,4.63
2018-07-12T01:56:07.200Z,4.20
2018-07-12T01:58:35.584Z,5.00
2018-07-12T02:01:03.955Z,4.90
2018-07-12T02:03:32.328Z,4.97
2018-07-12T02:06:00.704Z,4.63
2018-07-12T02:08:29.076Z,4.30
2018-07-12T02:10:57.454Z,4.03
2018-07-12T02:13:25.825Z,4.53
2018-07-12T02:15:54.220Z,4.13
2018-07-12T02:18:22.859Z,4.20
2018-07-12T02:20:51.198Z,4.20
2018-07-12T02:23:19.585Z,4.30
2018-07-12T02:25:47.955Z,4.10
2018-07-12T02:28:16.369Z,4.60
2018-07-12T02:30:44.784Z,4.30
2018-07-12T02:33:13.193Z,4.60
2018-07-12T02:35:41.569Z,4.77
2018-07-12T02:38:09.934Z,5.03
2018-07-12T02:40:38.325Z,4.93
2018-07-12T02:43:06.699Z,5.47
2018-07-12T02:45:35.071Z,4.70
2018-07-12T02:48:03.449Z,5.20
2018-07-12T02:50:31.822Z,4.67
2018-07-12T02:53:00.237Z,4.70
2018-07-12T02:55:28.613Z,5.30
2018-07-12T02:57:57.010Z,5.10
2018-07-12T03:00:25.401Z,5.30
2018-07-12T03:02:53.769Z,5.20
2018-07-12T03:05:22.140Z,5.23
2018-07-12T03:07:50.534Z,4.80
2018-07-12T03:10:18.900Z,5.83
2018-07-12T03:12:47.283Z,5.77
2018-07-12T03:15:15.705Z,5.47
2018-07-12T03:17:44.119Z,5.17
2018-07-12T03:20:12.508Z,5.30
2018-07-12T03:22:40.886Z,5.90
2018-07-12T03:25:09.266Z,5.43
2018-07-12T03:27:37.664Z,5.40
2018-07-12T03:30:06.043Z,6.30
2018-07-12T03:32:34.413Z,5.40
2018-07-12T03:35:02.796Z,5.67
2018-07-12T03:37:31.168Z,5.70
2018-07-12T03:39:59.532Z,5.00
2018-07-12T03:42:27.916Z,5.73
2018-07-12T03:44:56.280Z,5.43
2018-07-12T03:47:24.664Z,5.47
2018-07-12T03:49:53.042Z,6.17
2018-07-12T03:52:21.429Z,5.33
2018-07-12T03:54:49.809Z,5.30
2018-07-12T03:57:18.208Z,5.67
2018-07-12T03:59:46.577Z,5.27
2018-07-12T04:02:14.953Z,5.03
2018-07-12T04:04:43.344Z,5.50
2018-07-12T04:07:11.723Z,5.03
2018-07-12T04:09:40.097Z,6.23
2018-07-12T04:12:08.512Z,5.77
2018-07-12T04:14:36.908Z,5.50
2018-07-12T04:17:05.309Z,5.57
2018-07-12T04:19:33.672Z,4.90
2018-07-12T04:22:02.095Z,4.80
2018-07-12T04:24:30.429Z,5.17
2018-07-12T04:26:58.820Z,4.47
2018-07-12T04:29:27.188Z,5.10
2018-07-12T04:31:55.565Z,5.50
2018-07-12T04:34:23.969Z,5.00
2018-07-12T04:36:52.552Z,4.93
2018-07-12T04:39:20.917Z,4.70
2018-07-12T04:41:49.294Z,5.10
2018-07-12T04:44:17.648Z,4.90
2018-07-12T04:46:46.038Z,5.03
2018-07-12T04:49:14.428Z,4.40
2018-07-12T04:51:42.803Z,5.10
2018-07-12T04:54:11.176Z,5.10
2018-07-12T04:56:39.568Z,5.00
2018-07-12T04:59:08.052Z,5.20
2018-07-12T05:01:36.425Z,4.93
2018-07-12T05:04:04.800Z,4.87
2018-07-12T05:06:33.489Z,4.47
2018-07-12T05:09:01.915Z,4.33
2018-07-12T05:11:30.284Z,4.33
2018-07-12T05:13:58.648Z,4.20
2018-07-12T05:16:27.060Z,4.30
2018-07-12T05:18:55.420Z,4.27
2018-07-12T05:21:23.804Z,4.60
2018-07-12T05:23:52.239Z,4.60
2018-07-12T05:26:20.604Z,4.43
2018-07-12T05:28:49.101Z,4.30
2018-07-12T05:31:17.472Z,4.60
2018-07-12T05:33:45.837Z,4.30
2018-07-12T05:37:00.030Z,4.10
2018-07-12T05:39:30.153Z,4.20
2018-07-12T05:42:00.500Z,4.00
2018-07-12T05:44:30.684Z,4.43
2018-07-12T05:47:00.764Z,3.83
2018-07-12T05:49:30.864Z,4.43
2018-07-12T05:52:00.964Z,4.50
2018-07-12T05:54:31.075Z,4.30
2018-07-12T05:57:01.165Z,4.50
2018-07-12T05:59:31.232Z,4.77
2018-07-12T06:02:20.124Z,4.27
2018-07-12T06:04:50.604Z,4.20
2018-07-12T06:07:25.921Z,4.30
2018-07-12T06:09:55.989Z,4.10
2018-07-12T06:12:26.160Z,4.50
2018-07-12T06:14:56.324Z,4.30
2018-07-12T06:17:26.423Z,4.53
2018-07-12T06:19:56.496Z,4.77
2018-07-12T06:22:26.606Z,4.47
2018-07-12T06:24:56.684Z,5.30
2018-07-12T06:27:26.778Z,4.33
2018-07-12T06:29:56.883Z,4.17
2018-07-12T06:32:26.984Z,4.40
2018-07-12T06:34:57.065Z,4.33
2018-07-12T06:37:27.232Z,3.90
2018-07-12T06:39:57.300Z,4.20
2018-07-12T06:42:27.407Z,3.80
2018-07-12T06:44:57.480Z,4.13
2018-07-12T06:47:27.635Z,4.20
2018-07-12T06:49:57.720Z,4.30
2018-07-12T06:52:27.801Z,4.27
2018-07-12T06:54:57.887Z,3.83
2018-07-12T06:57:27.962Z,3.77
2018-07-12T06:59:58.040Z,3.87
2018-07-12T07:02:28.176Z,3.70
2018-07-12T07:04:58.384Z,3.90
2018-07-12T07:07:28.472Z,3.67
2018-07-12T07:09:58.576Z,3.77
2018-07-12T07:12:28.700Z,3.90
2018-07-12T07:14:58.784Z,3.90
2018-07-12T07:17:28.884Z,10.93
2018-07-12T07:19:58.957Z,11.20
2018-07-12T07:22:29.089Z,7.93
2018-07-12T07:24:59.144Z,3.93
2018-07-12T07:27:29.216Z,3.90
2018-07-12T07:29:59.300Z,6.93
2018-07-12T07:32:29.418Z,3.67
2018-07-12T07:34:59.480Z,4.10
2018-07-12T07:37:29.552Z,3.77
2018-07-12T07:39:59.648Z,3.50
2018-07-12T07:42:29.728Z,6.00
2018-07-12T07:44:59.906Z,5.13
2018-07-12T07:47:29.980Z,4.10
2018-07-12T07:50:00.085Z,3.73
2018-07-12T07:52:30.180Z,3.70
2018-07-12T07:55:00.279Z,3.87
2018-07-12T07:57:30.372Z,3.87
2018-07-12T08:00:00.474Z,10.70
2018-07-12T08:02:30.564Z,3.60
2018-07-12T08:05:00.645Z,3.70
2018-07-12T08:07:30.744Z,3.80
2018-07-12T08:10:01.103Z,4.20
2018-07-12T08:12:31.174Z,3.80
2018-07-12T08:15:01.332Z,10.83
2018-07-12T08:17:31.380Z,4.67
2018-07-12T08:20:04.899Z,3.60
2018-07-12T08:22:35.193Z,5.60
2018-07-12T08:25:05.579Z,5.30
2018-07-12T08:27:35.656Z,3.70
2018-07-12T08:30:05.777Z,2.87
2018-07-12T08:32:35.888Z,3.17
2018-07-12T08:35:06.085Z,3.43
2018-07-12T08:37:36.380Z,3.30
2018-07-12T08:40:06.456Z,3.70
2018-07-12T08:42:36.604Z,3.13
2018-07-12T08:45:06.960Z,3.30
2018-07-12T08:47:37.164Z,3.00
2018-07-12T08:50:13.592Z,2.70
2018-07-12T08:52:43.840Z,2.70
2018-07-12T08:55:13.968Z,2.50
2018-07-12T08:57:44.584Z,2.50
2018-07-12T09:00:14.911Z,3.83
2018-07-12T09:02:45.162Z,5.10
2018-07-12T09:05:15.517Z,3.43
2018-07-12T09:07:45.730Z,2.40
2018-07-12T09:10:16.251Z,2.23
2018-07-12T09:12:46.365Z,2.90
2018-07-12T09:15:16.496Z,5.50
2018-07-12T09:17:46.573Z,2.80
2018-07-12T09:20:16.789Z,2.60
2018-07-12T09:22:47.517Z,6.20
2018-07-12T09:25:17.662Z,4.07
2018-07-12T09:27:47.816Z,2.50
2018-07-12T09:30:17.924Z,2.70
2018-07-12T09:32:48.196Z,2.60
2018-07-12T09:35:20.380Z,2.60
2018-07-12T09:37:50.468Z,2.70
2018-07-12T09:40:20.693Z,2.97
2018-07-12T09:42:50.790Z,2.73
2018-07-12T09:45:20.910Z,3.10
2018-07-12T09:47:51.112Z,2.90
2018-07-12T09:50:21.244Z,2.70
2018-07-12T09:52:51.400Z,2.50
2018-07-12T09:55:21.501Z,2.90
2018-07-12T09:58:36.763Z,3.40
2018-07-12T10:01:12.133Z,2.97
2018-07-12T10:03:47.416Z,2.90
2018-07-12T10:06:22.819Z,2.60
2018-07-12T10:08:58.002Z,2.80
2018-07-12T10:11:33.312Z,3.10
2018-07-12T10:14:08.662Z,2.90
2018-07-12T10:16:45.269Z,3.40
2018-07-12T10:19:16.077Z,3.30
2018-07-12T10:21:46.228Z,3.00
2018-07-12T10:24:16.425Z,3.10
2018-07-12T10:26:47.336Z,3.00
2018-07-12T10:29:17.788Z,2.83
2018-07-12T10:31:48.149Z,2.93
2018-07-12T10:34:18.395Z,3.27
2018-07-12T10:36:55.419Z,3.20
2018-07-12T10:39:26.175Z,3.53
2018-07-12T10:41:56.509Z,2.77
2018-07-12T10:44:27.176Z,3.00
2018-07-12T10:46:57.616Z,3.20
2018-07-12T10:49:28.200Z,3.23
2018-07-12T10:52:01.128Z,3.20
2018-07-12T10:54:34.513Z,3.97
2018-07-12T10:57:05.087Z,3.40
2018-07-12T10:59:35.400Z,3.10
2018-07-12T11:02:06.147Z,3.20
2018-07-12T11:04:38.078Z,3.30
2018-07-12T11:07:08.581Z,3.10
2018-07-12T11:09:39.364Z,3.10
2018-07-12T11:12:09.916Z,3.10
2018-07-12T11:14:40.526Z,2.83
2018-07-12T11:17:11.109Z,2.70
2018-07-12T11:19:41.780Z,4.13
2018-07-12T11:22:12.516Z,3.33
2018-07-12T11:24:43.281Z,2.80
2018-07-12T11:27:14.225Z,2.90
2018-07-12T11:29:54.954Z,2.70
2018-07-12T11:32:25.598Z,3.30
2018-07-12T11:34:56.352Z,3.00
2018-07-12T11:37:28.246Z,3.00
2018-07-12T11:39:59.156Z,2.93
2018-07-12T11:42:29.892Z,2.87
2018-07-12T11:45:04.205Z,2.80
2018-07-12T11:47:37.771Z,2.90
2018-07-12T11:50:08.523Z,2.83
2018-07-12T11:52:39.529Z,3.03
2018-07-12T11:55:10.590Z,2.70
2018-07-12T11:57:41.963Z,3.00
2018-07-12T12:00:12.236Z,2.83
2018-07-12T12:02:42.365Z,3.00
2018-07-12T12:05:12.448Z,3.10
2018-07-12T12:07:42.516Z,2.90
2018-07-12T12:10:12.608Z,2.80
2018-07-12T12:12:45.308Z,2.80
2018-07-12T12:15:16.253Z,3.10
2018-07-12T12:17:46.810Z,4.50
2018-07-12T12:20:17.896Z,4.53
2018-07-12T12:22:48.404Z,3.00
2018-07-12T12:25:19.232Z,2.93
2018-07-12T12:27:49.913Z,3.60
2018-07-12T12:30:20.252Z,3.23
2018-07-12T12:32:50.311Z,3.30
2018-07-12T12:35:20.384Z,3.17
2018-07-12T12:37:50.480Z,3.40
2018-07-12T12:40:20.580Z,4.23
2018-07-12T12:42:50.692Z,3.77
2018-07-12T12:45:20.784Z,3.20
2018-07-12T12:47:50.798Z,3.37
2018-07-12T12:50:21.992Z,3.40
2018-07-12T12:52:53.144Z,3.10
2018-07-12T12:55:23.829Z,3.30
2018-07-12T12:57:54.580Z,3.33
2018-07-12T13:00:25.259Z,3.40
2018-07-12T13:02:55.345Z,3.47
2018-07-12T13:05:25.508Z,3.37
2018-07-12T13:07:55.618Z,7.17
2018-07-12T13:10:25.728Z,4.27
2018-07-12T13:12:55.856Z,4.17
2018-07-12T13:15:25.969Z,4.10
2018-07-12T13:17:56.229Z,4.90
2018-07-12T13:20:26.398Z,4.73
2018-07-12T13:22:56.482Z,5.80
2018-07-12T13:25:26.598Z,4.33
2018-07-12T13:27:56.702Z,4.77
2018-07-12T13:30:26.872Z,3.50
2018-07-12T13:32:56.944Z,3.60
2018-07-12T13:35:27.248Z,6.70
2018-07-12T13:37:57.407Z,6.20
2018-07-12T13:40:27.529Z,4.50
2018-07-12T13:42:57.592Z,3.80
2018-07-12T13:45:28.020Z,3.83
2018-07-12T13:47:58.127Z,4.63
2018-07-12T13:50:28.312Z,4.70
2018-07-12T13:52:58.404Z,4.23
2018-07-12T13:55:28.623Z,4.30
2018-07-12T14:00:24.813Z,3.90
2018-07-12T14:02:54.900Z,4.20
2018-07-12T14:05:25.001Z,3.80
2018-07-12T14:07:55.121Z,4.00
2018-07-12T14:10:25.220Z,3.87
2018-07-12T14:12:55.304Z,3.90
2018-07-12T14:15:25.463Z,3.60
2018-07-12T14:17:55.539Z,4.20
2018-07-12T14:20:25.629Z,3.87
2018-07-12T14:22:55.744Z,3.97
2018-07-12T14:25:25.863Z,3.77
2018-07-12T14:27:55.984Z,3.57
2018-07-12T14:30:26.120Z,3.60
2018-07-12T14:32:56.316Z,4.00
2018-07-12T14:35:26.431Z,3.90
2018-07-12T14:37:56.568Z,3.50
2018-07-12T14:40:26.664Z,3.80
2018-07-12T14:42:56.736Z,3.80
2018-07-12T14:45:26.888Z,4.03
2018-07-12T14:47:56.992Z,3.77
2018-07-12T14:50:27.152Z,3.60
2018-07-12T14:52:57.336Z,3.77
2018-07-12T14:55:27.434Z,3.57
2018-07-12T14:57:57.522Z,3.90
2018-07-12T15:00:27.301Z,5.50
2018-07-12T15:02:57.368Z,5.20
2018-07-12T15:05:27.459Z,8.20
2018-07-12T15:07:57.561Z,6.63
2018-07-12T15:10:27.732Z,4.30
2018-07-12T15:12:57.800Z,7.00
2018-07-12T15:15:27.891Z,3.60
2018-07-12T15:17:58.008Z,8.53
2018-07-12T15:20:28.284Z,8.37
2018-07-12T15:22:58.349Z,5.10
2018-07-12T15:25:28.496Z,4.90
2018-07-12T15:27:58.673Z,5.50
2018-07-12T15:30:28.752Z,4.30
2018-07-12T15:32:58.840Z,4.10
2018-07-12T15:35:28.924Z,3.97
2018-07-12T15:37:58.980Z,4.63
2018-07-12T15:40:29.040Z,3.80
2018-07-12T15:42:59.145Z,4.10
2018-07-12T15:45:29.201Z,3.73
2018-07-12T15:47:59.352Z,3.83
2018-07-12T15:50:29.440Z,3.77
2018-07-12T15:52:59.533Z,3.77
2018-07-12T15:55:29.600Z,3.80
2018-07-12T15:57:59.684Z,3.70
2018-07-12T16:00:29.468Z,3.83
2018-07-12T16:02:59.448Z,3.63
2018-07-12T16:05:29.543Z,3.83
2018-07-12T16:07:59.604Z,3.70
2018-07-12T16:10:29.707Z,4.20
2018-07-12T16:12:59.912Z,3.93
2018-07-12T16:15:29.976Z,3.80
2018-07-12T16:18:00.045Z,3.90
2018-07-12T16:20:30.136Z,3.90
2018-07-12T16:23:00.260Z,4.10
2018-07-12T16:25:30.328Z,3.90
2018-07-12T16:28:00.392Z,3.90
2018-07-12T16:30:30.503Z,3.90
2018-07-12T16:33:00.604Z,3.60
2018-07-12T16:35:30.708Z,3.83
2018-07-12T16:38:00.872Z,3.77
2018-07-12T16:40:31.008Z,3.83
2018-07-12T16:43:01.072Z,4.10
2018-07-12T16:45:31.136Z,3.80
2018-07-12T16:48:01.304Z,4.00
2018-07-12T16:50:31.400Z,3.83
2018-07-12T16:53:01.488Z,3.70
2018-07-12T16:55:31.576Z,4.20
2018-07-12T16:58:01.688Z,3.77
2018-07-12T17:00:31.848Z,3.80
2018-07-12T17:03:01.940Z,3.60
2018-07-12T17:05:32.207Z,4.10
2018-07-12T17:08:02.296Z,3.70
2018-07-12T17:10:32.384Z,3.73
2018-07-12T17:15:29.617Z,4.10
2018-07-12T17:17:59.680Z,4.17
2018-07-12T17:20:30.232Z,3.97
2018-07-12T17:23:02.014Z,4.20
2018-07-12T17:25:32.560Z,4.10
2018-07-12T17:28:03.041Z,4.37
2018-07-12T17:30:33.338Z,4.10
2018-07-12T17:33:03.618Z,4.00
2018-07-12T17:35:33.938Z,4.27
2018-07-12T17:38:04.611Z,4.20
2018-07-12T17:40:35.083Z,4.20
2018-07-12T17:43:05.592Z,4.30
2018-07-12T17:45:36.156Z,4.20
2018-07-12T17:48:06.187Z,10.90
2018-07-12T17:50:36.694Z,7.03
2018-07-12T17:53:07.381Z,6.07
2018-07-12T17:55:37.885Z,10.13
2018-07-12T17:58:08.292Z,41.07
2018-07-12T18:00:38.920Z,19.50
2018-07-12T18:03:09.429Z,19.50
2018-07-12T18:05:40.912Z,9.17
2018-07-12T18:08:11.220Z,8.40
2018-07-12T18:10:41.668Z,6.50
2018-07-12T18:13:12.597Z,7.03
2018-07-12T18:15:43.087Z,6.10
2018-07-12T18:18:13.521Z,20.20
2018-07-12T18:20:44.092Z,11.13
2018-07-12T18:23:14.862Z,12.13
2018-07-12T18:25:45.396Z,10.20
2018-07-12T18:28:16.852Z,12.90
2018-07-12T18:30:47.135Z,17.63
2018-07-12T18:33:17.268Z,18.03
2018-07-12T18:35:47.518Z,11.60
2018-07-12T18:38:17.720Z,16.63
2018-07-12T18:40:48.341Z,18.10
2018-07-12T18:43:18.703Z,34.97
2018-07-12T18:45:49.244Z,13.40
2018-07-12T18:48:19.343Z,9.40
2018-07-12T18:50:49.888Z,11.90
2018-07-12T18:53:19.996Z,24.87
2018-07-12T18:55:50.120Z,14.13
2018-07-12T18:58:20.247Z,6.80
2018-07-12T19:00:50.385Z,15.83
2018-07-12T19:03:20.495Z,6.47
2018-07-12T19:05:50.761Z,16.57
2018-07-12T19:08:20.840Z,15.87
2018-07-12T19:10:50.970Z,6.80
2018-07-12T19:13:21.056Z,8.40
2018-07-12T19:15:51.147Z,7.20
2018-07-12T19:18:21.312Z,10.57
2018-07-12T19:20:51.147Z,18.50
2018-07-12T19:23:21.152Z,9.83
2018-07-12T19:25:51.296Z,8.73
2018-07-12T19:28:21.760Z,29.60
2018-07-12T19:30:52.116Z,30.60
2018-07-12T19:33:22.448Z,19.63
2018-07-12T19:35:52.612Z,30.00
2018-07-12T19:38:22.928Z,79.20
2018-07-12T19:40:53.160Z,45.93
2018-07-12T19:43:23.319Z,11.50
2018-07-12T19:45:53.404Z,7.13
2018-07-12T19:48:23.516Z,6.47
2018-07-12T19:50:53.611Z,6.47
2018-07-12T19:53:24.157Z,6.43
2018-07-12T19:55:54.620Z,6.83
2018-07-12T19:58:25.072Z,6.67
2018-07-12T20:00:55.498Z,7.23
2018-07-12T20:03:25.729Z,6.60
2018-07-12T20:05:55.772Z,6.73
2018-07-12T20:08:25.864Z,7.27
2018-07-12T20:10:55.935Z,6.10
2018-07-12T20:13:26.152Z,6.30
2018-07-12T20:15:56.213Z,6.80
2018-07-12T20:18:26.549Z,6.43
2018-07-12T20:20:57.517Z,6.90
2018-07-12T20:23:28.044Z,11.20
2018-07-12T20:25:58.736Z,20.00
2018-07-12T20:28:28.856Z,8.43
2018-07-12T20:30:58.640Z,22.47
2018-07-12T20:33:28.405Z,10.53
2018-07-12T20:35:58.640Z,12.07
2018-07-12T20:38:28.845Z,9.47
2018-07-12T20:40:59.050Z,7.70
2018-07-12T20:43:29.124Z,7.27
2018-07-12T20:45:59.284Z,7.50
2018-07-12T20:48:29.532Z,8.93
2018-07-12T20:50:59.318Z,8.10
2018-07-12T20:53:29.452Z,7.80
2018-07-12T20:55:59.956Z,8.23
2018-07-12T20:58:30.154Z,7.70
2018-07-12T21:01:00.474Z,7.50
2018-07-12T21:03:30.701Z,8.00
2018-07-12T21:06:01.052Z,7.93
2018-07-12T21:08:31.316Z,8.30
2018-07-12T21:11:01.424Z,7.50
2018-07-12T21:13:31.524Z,7.30
2018-07-12T21:16:01.747Z,7.83
2018-07-12T21:18:31.900Z,8.27
2018-07-12T21:21:02.292Z,7.60
2018-07-12T21:23:32.917Z,9.10
2018-07-12T21:26:03.508Z,8.30
2018-07-12T21:28:34.032Z,7.37
2018-07-12T21:31:04.188Z,8.73
2018-07-12T21:33:34.418Z,7.80
2018-07-12T21:36:04.520Z,8.17
2018-07-12T21:38:34.716Z,9.20
2018-07-12T21:41:04.901Z,9.17
2018-07-12T21:43:35.089Z,8.60
2018-07-12T21:46:05.225Z,8.60
2018-07-12T21:48:35.399Z,9.10
2018-07-12T21:51:05.577Z,10.13
2018-07-12T21:53:35.732Z,10.87
2018-07-12T21:56:05.910Z,8.13
2018-07-12T21:58:36.028Z,8.93
2018-07-12T22:01:06.164Z,8.47
2018-07-12T22:03:36.286Z,8.30
2018-07-12T22:06:06.426Z,10.83
2018-07-12T22:08:36.636Z,9.90
2018-07-12T22:11:07.684Z,9.83
2018-07-12T22:13:38.616Z,9.30
2018-07-12T22:16:08.785Z,8.40
2018-07-12T22:18:38.930Z,24.40
2018-07-12T22:21:09.085Z,27.80
2018-07-12T22:23:39.152Z,14.63
2018-07-12T22:26:09.280Z,8.93
2018-07-12T22:28:39.432Z,8.10
2018-07-12T22:31:09.599Z,9.83
2018-07-12T22:33:39.731Z,10.07
2018-07-12T22:36:09.850Z,10.27
2018-07-12T22:38:39.970Z,8.57
2018-07-12T22:41:10.081Z,10.00
2018-07-12T22:43:40.198Z,11.27
2018-07-12T22:46:10.301Z,8.23
2018-07-12T22:48:40.463Z,7.90
2018-07-12T22:51:10.584Z,7.60
2018-07-12T22:53:40.704Z,9.30
2018-07-12T22:56:10.810Z,9.10
2018-07-12T22:58:40.908Z,9.10
2018-07-12T23:01:11.064Z,8.63
2018-07-12T23:03:41.229Z,8.33
2018-07-12T23:06:11.373Z,8.47
2018-07-12T23:08:41.640Z,9.00
2018-07-12T23:11:11.822Z,8.43
2018-07-12T23:13:41.915Z,8.10
2018-07-12T23:16:12.064Z,8.90
2018-07-12T23:18:42.179Z,9.00
2018-07-12T23:21:12.334Z,8.20
2018-07-12T23:23:42.432Z,7.77
2018-07-12T23:26:12.557Z,7.10
2018-07-12T23:28:42.745Z,7.47
2018-07-12T23:31:12.908Z,8.70
2018-07-12T23:33:43.021Z,8.90
2018-07-12T23:36:13.141Z,8.90
2018-07-12T23:38:43.273Z,7.43
2018-07-12T23:41:13.452Z,7.03
2018-07-12T23:43:43.609Z,7.43
2018-07-12T23:46:13.764Z,7.27
2018-07-12T23:48:43.853Z,7.40
2018-07-12T23:51:14.085Z,7.07
2018-07-12T23:53:44.192Z,7.10
2018-07-12T23:56:14.341Z,7.43
2018-07-12T23:58:44.458Z,6.70
